createdAt,value
2017-07-13T00:00:06.793Z,24.78
2017-07-13T00:00:47.251Z,24.75
2017-07-13T00:01:27.716Z,24.75
2017-07-13T00:02:08.171Z,24.77
2017-07-13T00:02:48.641Z,24.75
2017-07-13T00:03:29.096Z,24.74
2017-07-13T00:04:09.550Z,24.81
2017-07-13T00:04:50.006Z,24.74
2017-07-13T00:05:30.463Z,24.75
2017-07-13T00:06:10.921Z,24.77
2017-07-13T00:06:51.395Z,24.81
2017-07-13T00:07:31.851Z,24.77
2017-07-13T00:08:12.305Z,24.78
2017-07-13T00:08:52.762Z,24.71
2017-07-13T00:09:33.216Z,24.69
2017-07-13T00:10:13.675Z,24.71
2017-07-13T00:10:54.134Z,24.68
2017-07-13T00:11:34.595Z,24.69
2017-07-13T00:12:15.052Z,24.68
2017-07-13T00:12:55.511Z,24.71
2017-07-13T00:13:35.969Z,24.71
2017-07-13T00:14:16.421Z,24.65
2017-07-13T00:14:56.886Z,24.74
2017-07-13T00:15:37.334Z,24.69
2017-07-13T00:16:17.785Z,24.71
2017-07-13T00:16:58.239Z,24.69
2017-07-13T00:17:38.696Z,24.68
2017-07-13T00:18:19.150Z,24.69
2017-07-13T00:18:59.608Z,24.68
2017-07-13T00:19:40.065Z,24.74
2017-07-13T00:20:20.522Z,24.69
2017-07-13T00:21:00.975Z,24.69
2017-07-13T00:21:41.433Z,24.69
2017-07-13T00:22:21.891Z,24.69
2017-07-13T00:23:02.348Z,24.68
2017-07-13T00:23:42.804Z,24.63
2017-07-13T00:24:23.259Z,24.62
2017-07-13T00:25:03.716Z,24.68
2017-07-13T00:25:44.173Z,24.68
2017-07-13T00:26:24.627Z,24.65
2017-07-13T00:27:05.085Z,24.63
2017-07-13T00:27:45.542Z,24.63
2017-07-13T00:28:26.003Z,24.65
2017-07-13T00:29:06.467Z,24.66
2017-07-13T00:29:46.910Z,24.65
2017-07-13T00:30:27.368Z,24.74
2017-07-13T00:31:07.824Z,24.66
2017-07-13T00:31:48.281Z,24.66
2017-07-13T00:32:28.733Z,24.68
2017-07-13T00:33:09.188Z,24.69
2017-07-13T00:33:49.646Z,24.62
2017-07-13T00:34:30.105Z,24.69
2017-07-13T00:35:10.564Z,24.63
2017-07-13T00:35:51.012Z,24.61
2017-07-13T00:36:31.468Z,24.63
2017-07-13T00:37:11.918Z,24.66
2017-07-13T00:37:52.375Z,24.65
2017-07-13T00:38:32.831Z,24.69
2017-07-13T00:39:13.283Z,24.65
2017-07-13T00:39:53.739Z,24.63
2017-07-13T00:40:34.198Z,24.63
2017-07-13T00:41:14.654Z,24.63
2017-07-13T00:41:55.109Z,24.65
2017-07-13T00:42:35.563Z,24.62
2017-07-13T00:43:16.023Z,24.62
2017-07-13T00:43:56.485Z,24.74
2017-07-13T00:44:36.943Z,24.68
2017-07-13T00:45:17.402Z,24.66
2017-07-13T00:45:57.858Z,24.65
2017-07-13T00:46:38.314Z,24.62
2017-07-13T00:47:18.774Z,24.68
2017-07-13T00:47:59.232Z,24.65
2017-07-13T00:48:39.690Z,24.68
2017-07-13T00:49:20.147Z,24.65
2017-07-13T00:50:00.605Z,24.66
2017-07-13T00:50:41.057Z,24.63
2017-07-13T00:51:21.513Z,24.62
2017-07-13T00:52:01.967Z,24.69
2017-07-13T00:52:42.425Z,24.58
2017-07-13T00:53:22.879Z,24.62
2017-07-13T00:54:03.338Z,24.56
2017-07-13T00:54:43.796Z,24.63
2017-07-13T00:55:24.248Z,24.61
2017-07-13T00:56:04.705Z,24.65
2017-07-13T00:56:45.267Z,24.63
2017-07-13T00:57:25.722Z,24.56
2017-07-13T00:58:06.193Z,24.62
2017-07-13T00:58:46.638Z,24.65
2017-07-13T00:59:27.094Z,24.61
2017-07-13T01:00:07.547Z,24.62
2017-07-13T01:00:48.004Z,24.65
2017-07-13T01:01:28.458Z,24.61
2017-07-13T01:03:26.204Z,24.56
2017-07-13T01:04:06.659Z,24.55
2017-07-13T01:04:47.116Z,24.65
2017-07-13T01:05:27.577Z,24.63
2017-07-13T01:06:08.027Z,24.55
2017-07-13T01:06:48.512Z,24.48
2017-07-13T01:08:26.018Z,24.58
2017-07-13T01:09:06.475Z,24.58
2017-07-13T01:09:46.934Z,24.55
2017-07-13T01:10:27.388Z,24.48
2017-07-13T01:11:07.844Z,24.51
2017-07-13T01:11:48.295Z,24.47
2017-07-13T01:12:28.748Z,24.51
2017-07-13T01:13:09.213Z,24.5
2017-07-13T01:13:49.678Z,24.55
2017-07-13T01:14:30.128Z,24.46
2017-07-13T01:15:10.583Z,24.48
2017-07-13T01:15:51.057Z,24.5
2017-07-13T01:16:31.516Z,24.44
2017-07-13T01:17:11.973Z,24.43
2017-07-13T01:17:52.428Z,24.46
2017-07-13T01:18:32.886Z,24.51
2017-07-13T01:19:13.342Z,24.5
2017-07-13T01:19:53.799Z,24.48
2017-07-13T01:20:34.258Z,24.51
2017-07-13T01:21:14.719Z,24.43
2017-07-13T01:21:55.169Z,24.47
2017-07-13T01:22:35.624Z,24.51
2017-07-13T01:23:16.086Z,24.46
2017-07-13T01:23:56.541Z,24.41
2017-07-13T01:24:36.995Z,24.47
2017-07-13T01:25:17.449Z,24.44
2017-07-13T01:25:57.914Z,24.53
2017-07-13T01:26:38.358Z,24.46
2017-07-13T01:27:18.825Z,24.48
2017-07-13T01:27:59.288Z,24.48
2017-07-13T01:28:39.748Z,24.48
2017-07-13T01:29:20.205Z,24.5
2017-07-13T01:30:00.657Z,24.47
2017-07-13T01:30:41.113Z,24.47
2017-07-13T01:31:21.590Z,24.41
2017-07-13T01:32:02.039Z,24.44
2017-07-13T01:32:42.493Z,24.5
2017-07-13T01:33:22.951Z,24.55
2017-07-13T01:34:03.408Z,24.47
2017-07-13T01:34:43.863Z,24.46
2017-07-13T01:35:24.319Z,24.5
2017-07-13T01:36:04.778Z,24.41
2017-07-13T01:36:45.237Z,24.44
2017-07-13T01:37:25.697Z,24.46
2017-07-13T01:38:06.141Z,24.36
2017-07-13T01:38:46.596Z,24.46
2017-07-13T01:39:27.051Z,24.41
2017-07-13T01:40:07.500Z,24.46
2017-07-13T01:40:47.957Z,24.47
2017-07-13T01:41:28.414Z,24.46
2017-07-13T01:42:08.868Z,24.4
2017-07-13T01:42:49.322Z,24.47
2017-07-13T01:43:29.770Z,24.47
2017-07-13T01:44:10.224Z,24.4
2017-07-13T01:44:50.670Z,24.44
2017-07-13T01:45:31.129Z,24.43
2017-07-13T01:46:11.591Z,24.4
2017-07-13T01:46:52.048Z,24.37
2017-07-13T01:47:32.524Z,24.44
2017-07-13T01:48:12.979Z,24.4
2017-07-13T01:48:53.432Z,24.41
2017-07-13T01:49:33.890Z,24.44
2017-07-13T01:50:14.347Z,24.43
2017-07-13T01:50:54.802Z,24.41
2017-07-13T01:51:35.258Z,24.43
2017-07-13T01:52:15.713Z,24.38
2017-07-13T01:52:56.174Z,24.44
2017-07-13T01:53:36.631Z,24.43
2017-07-13T01:54:17.080Z,24.43
2017-07-13T01:54:57.540Z,24.44
2017-07-13T01:55:37.999Z,24.38
2017-07-13T01:56:18.455Z,24.38
2017-07-13T01:56:58.909Z,24.4
2017-07-13T01:57:39.363Z,24.4
2017-07-13T01:58:19.822Z,24.4
2017-07-13T01:59:00.274Z,24.4
2017-07-13T01:59:40.735Z,24.4
2017-07-13T02:00:21.196Z,24.43
2017-07-13T02:01:01.655Z,24.5
2017-07-13T02:01:42.108Z,24.46
2017-07-13T02:02:22.570Z,24.47
2017-07-13T02:03:03.026Z,24.38
2017-07-13T02:03:43.483Z,24.47
2017-07-13T02:04:23.940Z,24.37
2017-07-13T02:05:04.401Z,24.43
2017-07-13T02:05:44.856Z,24.43
2017-07-13T02:06:25.324Z,24.43
2017-07-13T02:07:05.771Z,24.4
2017-07-13T02:07:46.232Z,24.46
2017-07-13T02:08:26.691Z,24.37
2017-07-13T02:09:07.146Z,24.34
2017-07-13T02:09:47.623Z,24.38
2017-07-13T02:10:28.077Z,24.43
2017-07-13T02:11:08.532Z,24.34
2017-07-13T02:11:48.993Z,24.44
2017-07-13T02:12:29.444Z,24.46
2017-07-13T02:13:09.899Z,24.36
2017-07-13T02:13:50.352Z,24.36
2017-07-13T02:14:30.825Z,24.37
2017-07-13T02:15:11.281Z,24.32
2017-07-13T02:15:51.764Z,24.37
2017-07-13T02:16:32.222Z,24.32
2017-07-13T02:17:12.677Z,24.38
2017-07-13T02:17:53.128Z,24.36
2017-07-13T02:18:33.572Z,24.36
2017-07-13T02:19:14.042Z,24.38
2017-07-13T02:19:54.497Z,24.41
2017-07-13T02:20:34.952Z,24.4
2017-07-13T02:21:15.406Z,24.34
2017-07-13T02:21:55.876Z,24.32
2017-07-13T02:22:36.329Z,24.43
2017-07-13T02:23:16.784Z,24.34
2017-07-13T02:23:57.241Z,24.34
2017-07-13T02:24:37.699Z,24.34
2017-07-13T02:25:18.152Z,24.32
2017-07-13T02:25:58.610Z,24.34
2017-07-13T02:26:39.071Z,24.31
2017-07-13T02:27:19.504Z,24.32
2017-07-13T02:27:59.945Z,24.38
2017-07-13T02:28:40.402Z,24.32
2017-07-13T02:29:20.851Z,24.38
2017-07-13T02:30:01.308Z,24.37
2017-07-13T02:30:41.771Z,24.38
2017-07-13T02:31:22.207Z,24.32
2017-07-13T02:32:02.667Z,24.36
2017-07-13T02:32:43.123Z,24.38
2017-07-13T02:33:23.579Z,24.31
2017-07-13T02:34:04.040Z,24.4
2017-07-13T02:34:44.502Z,24.32
2017-07-13T02:35:24.962Z,24.38
2017-07-13T02:36:05.409Z,24.31
2017-07-13T02:36:45.864Z,24.31
2017-07-13T02:37:26.320Z,24.25
2017-07-13T02:38:06.777Z,24.26
2017-07-13T02:38:47.230Z,24.36
2017-07-13T02:39:27.667Z,24.25
2017-07-13T02:40:08.155Z,24.36
2017-07-13T02:40:48.612Z,24.37
2017-07-13T02:41:29.065Z,24.25
2017-07-13T02:42:09.567Z,24.36
2017-07-13T02:42:50.019Z,24.26
2017-07-13T02:43:30.478Z,24.25
2017-07-13T02:44:10.937Z,24.29
2017-07-13T02:44:51.397Z,24.38
2017-07-13T02:45:31.856Z,24.36
2017-07-13T02:46:12.308Z,24.29
2017-07-13T02:46:52.766Z,24.32
2017-07-13T02:47:33.222Z,24.25
2017-07-13T02:48:13.677Z,24.32
2017-07-13T02:48:54.132Z,24.31
2017-07-13T02:49:34.586Z,24.24
2017-07-13T02:50:15.039Z,24.24
2017-07-13T02:50:55.497Z,24.26
2017-07-13T02:51:36.002Z,24.24
2017-07-13T02:52:16.465Z,24.16
2017-07-13T02:52:56.923Z,24.26
2017-07-13T02:53:37.384Z,24.21
2017-07-13T02:54:17.837Z,24.28
2017-07-13T02:54:58.291Z,24.25
2017-07-13T02:55:38.738Z,24.25
2017-07-13T02:56:19.201Z,24.22
2017-07-13T02:56:59.651Z,24.18
2017-07-13T02:57:40.105Z,24.31
2017-07-13T02:58:20.557Z,24.25
2017-07-13T02:59:01.028Z,24.26
2017-07-13T02:59:41.483Z,24.21
2017-07-13T03:00:21.934Z,24.14
2017-07-13T03:01:02.392Z,24.26
2017-07-13T03:01:42.855Z,24.29
2017-07-13T03:02:23.310Z,24.21
2017-07-13T03:03:03.763Z,24.21
2017-07-13T03:03:44.219Z,24.26
2017-07-13T03:04:24.665Z,24.22
2017-07-13T03:05:05.114Z,24.24
2017-07-13T03:05:45.570Z,24.29
2017-07-13T03:06:26.030Z,24.22
2017-07-13T03:07:06.487Z,24.19
2017-07-13T03:07:46.935Z,24.22
2017-07-13T03:08:27.380Z,24.31
2017-07-13T03:09:07.834Z,24.29
2017-07-13T03:09:48.294Z,24.24
2017-07-13T03:10:28.763Z,24.25
2017-07-13T03:11:09.221Z,24.26
2017-07-13T03:11:49.673Z,24.24
2017-07-13T03:12:30.133Z,24.18
2017-07-13T03:13:10.586Z,24.25
2017-07-13T03:13:51.084Z,24.25
2017-07-13T03:14:31.538Z,24.21
2017-07-13T03:15:11.992Z,24.19
2017-07-13T03:15:52.443Z,24.16
2017-07-13T03:16:32.896Z,24.24
2017-07-13T03:17:13.352Z,24.19
2017-07-13T03:17:53.808Z,24.19
2017-07-13T03:18:34.265Z,24.16
2017-07-13T03:19:14.725Z,24.28
2017-07-13T03:19:55.181Z,24.19
2017-07-13T03:20:35.641Z,24.19
2017-07-13T03:21:16.097Z,24.1
2017-07-13T03:21:56.555Z,24.22
2017-07-13T03:22:37.009Z,24.07
2017-07-13T03:23:17.517Z,24.11
2017-07-13T03:23:57.953Z,24.24
2017-07-13T03:24:38.476Z,24.16
2017-07-13T03:25:18.836Z,24.22
2017-07-13T03:25:59.280Z,24.16
2017-07-13T03:26:39.741Z,24.21
2017-07-13T03:27:20.198Z,24.13
2017-07-13T03:28:00.655Z,24.13
2017-07-13T03:28:41.122Z,24.21
2017-07-13T03:29:21.583Z,24.16
2017-07-13T03:30:02.039Z,24.14
2017-07-13T03:30:42.491Z,24.16
2017-07-13T03:31:22.946Z,24.11
2017-07-13T03:32:03.415Z,24.16
2017-07-13T03:32:43.868Z,24.13
2017-07-13T03:33:24.321Z,24.13
2017-07-13T03:34:04.780Z,24.13
2017-07-13T03:34:45.237Z,24.09
2017-07-13T03:35:25.712Z,24.1
2017-07-13T03:36:06.169Z,24.18
2017-07-13T03:36:46.626Z,24.09
2017-07-13T03:37:27.088Z,24.1
2017-07-13T03:38:07.518Z,24.21
2017-07-13T03:38:47.977Z,24.16
2017-07-13T03:39:28.431Z,24.13
2017-07-13T03:40:08.887Z,24.21
2017-07-13T03:40:49.333Z,24.13
2017-07-13T03:41:29.796Z,24.11
2017-07-13T03:42:10.288Z,24.18
2017-07-13T03:42:50.751Z,24.24
2017-07-13T03:43:31.203Z,24.16
2017-07-13T03:44:11.659Z,24.19
2017-07-13T03:44:52.115Z,24.18
2017-07-13T03:45:32.590Z,24.19
2017-07-13T03:46:13.019Z,24.18
2017-07-13T03:46:53.468Z,24.19
2017-07-13T03:47:33.930Z,24.26
2017-07-13T03:48:14.366Z,24.22
2017-07-13T03:48:54.823Z,24.24
2017-07-13T03:49:35.283Z,24.28
2017-07-13T03:50:15.734Z,24.25
2017-07-13T03:50:56.199Z,24.29
2017-07-13T03:51:36.647Z,24.41
2017-07-13T03:52:17.102Z,24.36
2017-07-13T03:52:57.561Z,24.32
2017-07-13T03:53:38.031Z,24.4
2017-07-13T03:54:18.485Z,24.32
2017-07-13T03:54:58.941Z,24.32
2017-07-13T03:55:39.399Z,24.38
2017-07-13T03:56:19.853Z,24.28
2017-07-13T03:57:00.298Z,24.37
2017-07-13T03:57:40.757Z,24.32
2017-07-13T03:58:21.216Z,24.41
2017-07-13T03:59:01.674Z,24.34
2017-07-13T03:59:42.133Z,24.4
2017-07-13T04:00:22.590Z,24.38
2017-07-13T04:01:03.052Z,24.41
2017-07-13T04:01:43.509Z,24.34
2017-07-13T04:02:23.958Z,24.31
2017-07-13T04:03:04.413Z,24.32
2017-07-13T04:03:44.882Z,24.34
2017-07-13T04:04:25.331Z,24.32
2017-07-13T04:05:05.786Z,24.4
2017-07-13T04:05:46.243Z,24.41
2017-07-13T04:06:26.699Z,24.38
2017-07-13T04:07:07.156Z,24.37
2017-07-13T04:07:47.612Z,24.32
2017-07-13T04:08:28.068Z,24.38
2017-07-13T04:09:08.523Z,24.34
2017-07-13T04:09:48.980Z,24.46
2017-07-13T04:10:29.438Z,24.43
2017-07-13T04:11:09.899Z,24.38
2017-07-13T04:11:50.427Z,24.34
2017-07-13T04:12:30.805Z,24.32
2017-07-13T04:13:11.257Z,24.43
2017-07-13T04:13:51.711Z,24.47
2017-07-13T04:14:32.170Z,24.4
2017-07-13T04:15:12.629Z,24.38
2017-07-13T04:15:53.079Z,24.44
2017-07-13T04:16:33.540Z,24.32
2017-07-13T04:17:13.998Z,24.38
2017-07-13T04:17:54.456Z,24.38
2017-07-13T04:18:34.910Z,24.4
2017-07-13T04:19:15.372Z,24.38
2017-07-13T04:19:55.826Z,24.36
2017-07-13T04:20:36.283Z,24.36
2017-07-13T04:21:16.733Z,24.36
2017-07-13T04:21:57.185Z,24.4
2017-07-13T04:22:37.637Z,24.36
2017-07-13T04:23:18.093Z,24.36
2017-07-13T04:23:58.547Z,24.36
2017-07-13T04:24:39.003Z,24.36
2017-07-13T04:25:19.466Z,24.32
2017-07-13T04:25:59.916Z,24.36
2017-07-13T04:26:40.377Z,24.37
2017-07-13T04:27:20.833Z,24.31
2017-07-13T04:28:01.294Z,24.32
2017-07-13T04:28:41.738Z,24.34
2017-07-13T04:29:22.198Z,24.34
2017-07-13T04:30:02.657Z,24.38
2017-07-13T04:30:43.114Z,24.43
2017-07-13T04:31:23.573Z,24.36
2017-07-13T04:32:04.029Z,24.34
2017-07-13T04:32:44.481Z,24.37
2017-07-13T04:33:24.954Z,24.38
2017-07-13T04:34:05.411Z,24.32
2017-07-13T04:34:45.862Z,24.36
2017-07-13T04:35:26.319Z,24.31
2017-07-13T04:36:06.783Z,24.38
2017-07-13T04:36:47.231Z,24.38
2017-07-13T04:37:27.685Z,24.29
2017-07-13T04:38:08.140Z,24.28
2017-07-13T04:38:48.588Z,24.29
2017-07-13T04:39:29.050Z,24.26
2017-07-13T04:40:09.494Z,24.32
2017-07-13T04:40:49.937Z,24.32
2017-07-13T04:41:30.394Z,24.32
2017-07-13T04:42:10.890Z,24.32
2017-07-13T04:42:51.332Z,24.32
2017-07-13T04:43:31.791Z,24.31
2017-07-13T04:44:12.245Z,24.32
2017-07-13T04:44:52.698Z,24.37
2017-07-13T04:45:33.165Z,24.36
2017-07-13T04:46:13.615Z,24.31
2017-07-13T04:46:54.126Z,24.31
2017-07-13T04:47:34.519Z,24.41
2017-07-13T04:48:14.977Z,24.4
2017-07-13T04:48:55.439Z,24.34
2017-07-13T04:49:35.888Z,24.36
2017-07-13T04:50:16.343Z,24.36
2017-07-13T04:50:56.801Z,24.36
2017-07-13T04:51:37.259Z,24.34
2017-07-13T04:52:17.718Z,24.4
2017-07-13T04:52:58.217Z,24.47
2017-07-13T04:53:38.678Z,24.43
2017-07-13T04:54:19.135Z,24.37
2017-07-13T04:54:59.594Z,24.43
2017-07-13T04:55:40.055Z,24.41
2017-07-13T04:56:20.512Z,24.43
2017-07-13T04:57:00.971Z,24.43
2017-07-13T04:57:41.426Z,24.44
2017-07-13T04:58:21.889Z,24.36
2017-07-13T04:59:02.342Z,24.44
2017-07-13T04:59:42.800Z,24.34
2017-07-13T05:00:23.261Z,24.36
2017-07-13T05:01:03.734Z,24.38
2017-07-13T05:01:44.161Z,24.36
2017-07-13T05:02:24.667Z,24.36
2017-07-13T05:03:05.115Z,24.38
2017-07-13T05:03:45.576Z,24.34
2017-07-13T05:04:26.023Z,24.32
2017-07-13T05:05:06.444Z,24.43
2017-07-13T05:05:46.850Z,24.34
2017-07-13T05:06:27.274Z,24.34
2017-07-13T05:07:07.656Z,24.34
2017-07-13T05:07:48.050Z,24.34
2017-07-13T05:08:28.451Z,24.38
2017-07-13T05:09:08.876Z,24.31
2017-07-13T05:09:49.303Z,24.41
2017-07-13T05:10:29.722Z,24.34
2017-07-13T05:11:10.090Z,24.34
2017-07-13T05:11:50.477Z,24.41
2017-07-13T05:12:30.910Z,24.34
2017-07-13T05:13:11.316Z,24.36
2017-07-13T05:13:51.695Z,24.29
2017-07-13T05:14:32.094Z,24.37
2017-07-13T05:15:12.522Z,24.31
2017-07-13T05:15:52.934Z,24.37
2017-07-13T05:16:33.340Z,24.37
2017-07-13T05:17:13.775Z,24.36
2017-07-13T05:17:54.213Z,24.37
2017-07-13T05:18:34.587Z,24.37
2017-07-13T05:19:15.017Z,24.34
2017-07-13T05:19:55.434Z,24.43
2017-07-13T05:20:35.870Z,24.36
2017-07-13T05:21:16.289Z,24.34
2017-07-13T05:21:56.713Z,24.36
2017-07-13T05:22:37.115Z,24.32
2017-07-13T05:23:17.556Z,24.36
2017-07-13T05:23:58.012Z,24.34
2017-07-13T05:24:38.430Z,24.34
2017-07-13T05:25:18.887Z,24.4
2017-07-13T05:25:59.346Z,24.34
2017-07-13T05:26:39.811Z,24.34
2017-07-13T05:27:20.261Z,24.34
2017-07-13T05:28:00.713Z,24.36
2017-07-13T05:28:41.159Z,24.37
2017-07-13T05:29:21.613Z,24.36
2017-07-13T05:30:02.072Z,24.38
2017-07-13T05:30:42.530Z,24.37
2017-07-13T05:31:22.991Z,24.41
2017-07-13T05:32:03.452Z,24.43
2017-07-13T05:32:43.913Z,24.44
2017-07-13T05:33:24.372Z,24.38
2017-07-13T05:34:04.827Z,24.37
2017-07-13T05:34:45.280Z,24.46
2017-07-13T05:35:25.735Z,24.41
2017-07-13T05:36:06.190Z,24.36
2017-07-13T05:36:46.646Z,24.47
2017-07-13T05:37:27.104Z,24.48
2017-07-13T05:38:07.560Z,24.5
2017-07-13T05:38:48.017Z,24.37
2017-07-13T05:39:28.474Z,24.47
2017-07-13T05:40:08.931Z,24.47
2017-07-13T05:40:49.394Z,24.41
2017-07-13T05:41:29.841Z,24.44
2017-07-13T05:42:10.298Z,24.41
2017-07-13T05:42:50.758Z,24.44
2017-07-13T05:43:31.215Z,24.48
2017-07-13T05:44:11.668Z,24.4
2017-07-13T05:44:52.123Z,24.51
2017-07-13T05:45:32.577Z,24.46
2017-07-13T05:46:13.036Z,24.46
2017-07-13T05:46:53.493Z,24.46
2017-07-13T05:47:33.948Z,24.47
2017-07-13T05:48:14.409Z,24.48
2017-07-13T05:48:54.866Z,24.47
2017-07-13T05:49:35.318Z,24.56
2017-07-13T05:50:15.775Z,24.56
2017-07-13T05:50:56.235Z,24.48
2017-07-13T05:51:36.683Z,24.48
2017-07-13T05:52:17.142Z,24.56
2017-07-13T05:52:57.593Z,24.56
2017-07-13T05:53:38.050Z,24.47
2017-07-13T05:54:18.508Z,24.53
2017-07-13T05:54:58.969Z,24.58
2017-07-13T05:55:39.423Z,24.65
2017-07-13T05:56:19.880Z,24.58
2017-07-13T05:57:00.340Z,24.5
2017-07-13T05:57:40.804Z,24.56
2017-07-13T05:58:21.249Z,24.61
2017-07-13T05:59:01.705Z,24.55
2017-07-13T05:59:42.158Z,24.58
2017-07-13T06:00:22.623Z,24.62
2017-07-13T06:01:03.078Z,24.62
2017-07-13T06:01:43.534Z,24.63
2017-07-13T06:02:23.993Z,24.66
2017-07-13T06:03:04.454Z,24.62
2017-07-13T06:03:44.911Z,24.63
2017-07-13T06:04:25.363Z,24.62
2017-07-13T06:05:05.821Z,24.65
2017-07-13T06:05:46.331Z,24.69
2017-07-13T06:06:26.791Z,24.66
2017-07-13T06:07:07.249Z,24.68
2017-07-13T06:07:47.706Z,24.69
2017-07-13T06:08:28.161Z,24.68
2017-07-13T06:09:08.621Z,24.65
2017-07-13T06:09:49.076Z,24.65
2017-07-13T06:10:29.519Z,24.75
2017-07-13T06:11:09.973Z,24.68
2017-07-13T06:11:50.420Z,24.68
2017-07-13T06:12:30.877Z,24.71
2017-07-13T06:13:11.335Z,24.66
2017-07-13T06:13:51.785Z,24.77
2017-07-13T06:14:32.236Z,24.75
2017-07-13T06:15:12.692Z,24.69
2017-07-13T06:15:53.129Z,24.71
2017-07-13T06:16:33.610Z,24.66
2017-07-13T06:17:14.058Z,24.77
2017-07-13T06:17:54.517Z,24.78
2017-07-13T06:18:34.975Z,24.74
2017-07-13T06:19:15.431Z,24.75
2017-07-13T06:19:55.906Z,24.85
2017-07-13T06:20:36.349Z,24.68
2017-07-13T06:21:16.854Z,24.85
2017-07-13T06:21:57.308Z,24.71
2017-07-13T06:22:37.769Z,24.85
2017-07-13T06:23:18.233Z,24.86
2017-07-13T06:23:58.688Z,24.81
2017-07-13T06:24:39.146Z,24.84
2017-07-13T06:25:19.603Z,24.86
2017-07-13T06:26:00.051Z,24.84
2017-07-13T06:26:40.503Z,24.86
2017-07-13T06:27:20.958Z,24.88
2017-07-13T06:28:01.410Z,24.88
2017-07-13T06:28:41.866Z,24.84
2017-07-13T06:29:22.325Z,24.84
2017-07-13T06:30:02.787Z,24.86
2017-07-13T06:30:43.245Z,24.84
2017-07-13T06:31:23.702Z,24.84
2017-07-13T06:32:04.171Z,24.82
2017-07-13T06:32:44.620Z,24.82
2017-07-13T06:33:25.066Z,24.79
2017-07-13T06:34:05.522Z,24.85
2017-07-13T06:34:45.976Z,24.85
2017-07-13T06:35:26.432Z,24.79
2017-07-13T06:36:06.888Z,24.85
2017-07-13T06:36:47.340Z,24.79
2017-07-13T06:37:27.796Z,24.82
2017-07-13T06:38:08.254Z,24.82
2017-07-13T06:38:48.720Z,24.79
2017-07-13T06:39:29.174Z,24.88
2017-07-13T06:40:09.631Z,24.82
2017-07-13T06:40:50.091Z,24.86
2017-07-13T06:41:30.545Z,24.88
2017-07-13T06:42:11.001Z,24.92
2017-07-13T06:42:51.467Z,24.85
2017-07-13T06:43:31.926Z,24.85
2017-07-13T06:44:12.389Z,24.89
2017-07-13T06:44:52.846Z,24.84
2017-07-13T06:45:33.310Z,24.89
2017-07-13T06:46:13.765Z,24.92
2017-07-13T06:46:54.226Z,24.84
2017-07-13T06:47:34.681Z,24.86
2017-07-13T06:48:15.154Z,24.81
2017-07-13T06:48:55.598Z,24.85
2017-07-13T06:49:36.051Z,24.94
2017-07-13T06:50:16.523Z,24.99
2017-07-13T06:50:56.986Z,24.97
2017-07-13T06:51:37.444Z,25.01
2017-07-13T06:52:18.152Z,24.99
2017-07-13T06:52:58.623Z,25.09
2017-07-13T06:53:39.073Z,25.04
2017-07-13T06:54:19.563Z,25.09
2017-07-13T06:55:00.039Z,25.03
2017-07-13T06:55:40.498Z,25
2017-07-13T06:56:21.397Z,25.01
2017-07-13T06:57:01.850Z,25.01
2017-07-13T06:57:42.301Z,25.04
2017-07-13T06:58:22.768Z,25
2017-07-13T06:59:03.224Z,25.19
2017-07-13T06:59:43.676Z,25.12
2017-07-13T07:00:24.134Z,25.15
2017-07-13T07:01:04.591Z,25.18
2017-07-13T07:01:45.059Z,25.12
2017-07-13T07:02:25.520Z,25.21
2017-07-13T07:03:05.984Z,25.18
2017-07-13T07:03:46.434Z,25.26
2017-07-13T07:04:26.898Z,25.22
2017-07-13T07:05:07.465Z,25.24
2017-07-13T07:05:47.946Z,25.21
2017-07-13T07:06:28.421Z,25.21
2017-07-13T07:07:08.880Z,25.24
2017-07-13T07:07:49.350Z,25.16
2017-07-13T07:08:29.797Z,25.25
2017-07-13T07:09:10.250Z,25.26
2017-07-13T07:09:50.900Z,25.25
2017-07-13T07:10:31.430Z,25.29
2017-07-13T07:11:11.928Z,25.3
2017-07-13T07:11:52.348Z,25.24
2017-07-13T07:12:32.892Z,25.25
2017-07-13T07:13:13.327Z,25.24
2017-07-13T07:13:53.793Z,25.25
2017-07-13T07:14:34.238Z,25.24
2017-07-13T07:15:14.704Z,25.24
2017-07-13T07:15:55.396Z,25.29
2017-07-13T07:16:35.687Z,25.34
2017-07-13T07:17:16.146Z,25.33
2017-07-13T07:17:56.599Z,25.33
2017-07-13T07:18:37.055Z,25.25
2017-07-13T07:19:17.507Z,25.22
2017-07-13T07:19:57.956Z,25.26
2017-07-13T07:20:38.420Z,25.26
2017-07-13T07:21:18.884Z,25.3
2017-07-13T07:21:59.340Z,25.31
2017-07-13T07:22:39.807Z,25.29
2017-07-13T07:23:20.269Z,25.25
2017-07-13T07:24:00.722Z,25.34
2017-07-13T07:24:41.167Z,25.37
2017-07-13T07:25:21.616Z,25.26
2017-07-13T07:26:02.068Z,25.31
2017-07-13T07:26:42.517Z,25.3
2017-07-13T07:27:22.977Z,25.4
2017-07-13T07:28:03.430Z,25.37
2017-07-13T07:28:43.883Z,25.36
2017-07-13T07:29:24.358Z,25.36
2017-07-13T07:30:04.823Z,25.4
2017-07-13T07:30:45.276Z,25.31
2017-07-13T07:31:25.727Z,25.49
2017-07-13T07:32:06.198Z,25.41
2017-07-13T07:32:46.651Z,25.52
2017-07-13T07:33:27.127Z,25.49
2017-07-13T07:34:07.673Z,25.49
2017-07-13T07:34:48.118Z,25.49
2017-07-13T07:35:28.571Z,25.46
2017-07-13T07:36:09.018Z,25.52
2017-07-13T07:36:49.470Z,25.55
2017-07-13T07:37:29.942Z,25.46
2017-07-13T07:38:10.406Z,25.44
2017-07-13T07:38:50.885Z,25.54
2017-07-13T07:39:31.340Z,25.56
2017-07-13T07:40:11.793Z,25.61
2017-07-13T07:40:52.236Z,25.55
2017-07-13T07:41:32.684Z,25.56
2017-07-13T07:42:13.140Z,25.56
2017-07-13T07:42:53.598Z,25.67
2017-07-13T07:43:34.055Z,25.55
2017-07-13T07:44:14.491Z,25.62
2017-07-13T07:44:55.152Z,25.62
2017-07-13T07:47:08.940Z,25.7
2017-07-13T07:47:49.398Z,25.66
2017-07-13T07:48:29.847Z,25.67
2017-07-13T07:49:10.302Z,25.68
2017-07-13T07:49:50.758Z,25.71
2017-07-13T07:50:31.215Z,25.76
2017-07-13T07:51:11.668Z,25.77
2017-07-13T07:51:52.128Z,25.8
2017-07-13T07:52:32.576Z,25.81
2017-07-13T07:53:13.006Z,25.77
2017-07-13T07:53:53.468Z,25.83
2017-07-13T07:54:33.926Z,25.86
2017-07-13T07:55:14.377Z,25.88
2017-07-13T07:55:54.837Z,25.91
2017-07-13T07:56:35.294Z,25.89
2017-07-13T07:57:15.749Z,25.88
2017-07-13T07:57:56.205Z,25.92
2017-07-13T07:58:36.673Z,25.91
2017-07-13T07:59:17.132Z,25.99
2017-07-13T07:59:57.561Z,25.95
2017-07-13T08:00:38.013Z,25.89
2017-07-13T08:01:18.463Z,25.91
2017-07-13T08:01:58.919Z,25.92
2017-07-13T08:02:39.367Z,25.95
2017-07-13T08:03:19.825Z,25.95
2017-07-13T08:04:00.288Z,25.98
2017-07-13T08:04:40.750Z,25.93
2017-07-13T08:05:21.195Z,25.98
2017-07-13T08:06:01.653Z,25.91
2017-07-13T08:06:42.108Z,25.88
2017-07-13T08:07:22.583Z,25.92
2017-07-13T08:08:03.036Z,25.89
2017-07-13T08:08:43.497Z,25.88
2017-07-13T08:09:23.949Z,25.85
2017-07-13T08:10:04.406Z,25.88
2017-07-13T08:10:44.863Z,25.83
2017-07-13T08:11:25.319Z,25.8
2017-07-13T08:12:05.780Z,25.81
2017-07-13T08:12:46.232Z,25.83
2017-07-13T08:13:26.689Z,25.8
2017-07-13T08:14:07.150Z,25.74
2017-07-13T08:14:47.605Z,25.78
2017-07-13T08:15:28.089Z,25.77
2017-07-13T08:16:08.550Z,25.71
2017-07-13T08:16:49.005Z,25.73
2017-07-13T08:17:29.451Z,25.74
2017-07-13T08:18:09.904Z,25.73
2017-07-13T08:18:50.350Z,25.68
2017-07-13T08:19:30.803Z,25.7
2017-07-13T08:20:11.253Z,25.61
2017-07-13T08:20:51.704Z,25.66
2017-07-13T08:21:32.153Z,25.61
2017-07-13T08:22:12.597Z,25.59
2017-07-13T08:22:53.066Z,25.67
2017-07-13T08:23:33.521Z,25.58
2017-07-13T08:24:14.688Z,25.63
2017-07-13T08:24:55.143Z,25.7
2017-07-13T08:25:35.604Z,25.62
2017-07-13T08:26:16.064Z,25.62
2017-07-13T08:26:56.521Z,25.62
2017-07-13T08:27:36.982Z,25.58
2017-07-13T08:28:17.442Z,25.59
2017-07-13T08:28:57.894Z,25.55
2017-07-13T08:29:38.360Z,25.62
2017-07-13T08:30:18.819Z,25.58
2017-07-13T08:30:59.275Z,25.55
2017-07-13T08:31:39.728Z,25.58
2017-07-13T08:32:20.183Z,25.58
2017-07-13T08:33:00.655Z,25.61
2017-07-13T08:33:41.097Z,25.48
2017-07-13T08:34:21.558Z,25.54
2017-07-13T08:35:02.014Z,25.51
2017-07-13T08:35:42.464Z,25.49
2017-07-13T08:36:22.917Z,25.52
2017-07-13T08:37:03.452Z,25.54
2017-07-13T08:37:43.937Z,25.52
2017-07-13T08:38:24.347Z,25.44
2017-07-13T08:39:04.800Z,25.39
2017-07-13T08:39:45.273Z,25.46
2017-07-13T08:40:25.724Z,25.51
2017-07-13T08:41:06.178Z,25.48
2017-07-13T08:41:46.647Z,25.49
2017-07-13T08:42:27.100Z,25.51
2017-07-13T08:43:07.555Z,25.54
2017-07-13T08:43:48.050Z,25.41
2017-07-13T08:44:28.511Z,25.52
2017-07-13T08:45:08.965Z,25.46
2017-07-13T08:45:49.423Z,25.52